松本空港の過去48時間の天気

松本空港 (Matsumoto)

現在時刻: 2/7 04:20 JST (2/6 19:20 UTC) 以下の時間は現地時間です。

過去48時間のMETAR気象情報
時間 風向 風速(m/s) 視程 気温(℃) 湿度(%) 気圧(hPa) 天気現象
6 18:00 北西 3 10km以上 4 48 1018
6 17:00 北北西 4 10km以上 6 39 1017
6 16:00 2 10km以上 8 27 1017
6 15:00 不定 2 10km以上 8 27 1016
6 14:00 北北西 2 10km以上 7 31 1017
6 13:00 北北西 2 10km以上 5 38 1017
6 12:00 3 10km以上 5 48 1019
6 11:00 不定 1 10km以上 4 52 1019
6 10:00 不定 1 10km以上 1 64 1021
6 09:00 不定 1 10km以上 -2 80 1021
6 08:30 不定 1 10km以上 -3 80 1022
6 08:10 不定 1 10km以上 -3 80 1022
RJAF 060900Z 31005KT CAVOK 04/M06 Q1018
RJAF 060800Z 33007KT 290V350 CAVOK 06/M07 Q1017
RJAF 060700Z 35003KT 320V030 CAVOK 08/M10 Q1017
RJAF 060600Z VRB04KT CAVOK 08/M10 Q1016
RJAF 060500Z 33004KT 260V040 CAVOK 07/M09 Q1017
RJAF 060400Z 34003KT 280V050 CAVOK 05/M08 Q1017
RJAF 060300Z 36006KT 300V050 CAVOK 05/M05 Q1019
RJAF 060200Z VRB02KT CAVOK 04/M05 Q1019
RJAF 060100Z VRB02KT CAVOK 01/M05 Q1021
RJAF 060000Z VRB02KT CAVOK M02/M05 Q1021
RJAF 052330Z VRB01KT 9999 FEW060 M03/M06 Q1022
RJAF 052310Z VRB01KT CAVOK M03/M06 Q1022 RMK A3018